Tottenham, Canada
Current Conditions -  °F | °C
As of 12:00 AM on Saturday 25 Oct 2014 (Local Time) from CYBN Reporting Station
Overcast Overcast  
Wind Chill: 48°   Ceiling: 3200
Heat Index: 48°   Visibility: 9mi
Dew Point: 46°   Wind: 0mph
Humidity: 93%   Direction: NA
Pressure: 29.9"   Gusts: NA
Location:  44.02°N, 79.8°W
Report Text: CYBN 250400Z AUTO 00000KT 9SM OVC032 09/08 A2990 RMK SLP128
Loading
Personal Weather Stations






























Interactive Weather Map
Tropical Storm Tracking
New forecast layout! Learn more

10-Day Weather Forecast

Advertisements
Track Severe Weather on mobile